sensor_id;sensor_type;location;lat;lon;timestamp;pressure;altitude;pressure_sealevel;temperature;humidity
41706;BME280;27385;51.096;17.190;2023-11-19T00:00:41;100786.61;;;2.69;98.89
41706;BME280;27385;51.096;17.190;2023-11-19T00:03:30;100789.08;;;2.67;98.88
41706;BME280;27385;51.096;17.190;2023-11-19T00:06:01;100791.88;;;2.63;98.83
41706;BME280;27385;51.096;17.190;2023-11-19T00:08:32;100786.73;;;2.59;98.86
41706;BME280;27385;51.096;17.190;2023-11-19T00:11:03;100789.76;;;2.56;98.83
41706;BME280;27385;51.096;17.190;2023-11-19T00:13:33;100778.62;;;2.51;98.80
41706;BME280;27385;51.096;17.190;2023-11-19T00:16:04;100767.20;;;2.46;98.82
41706;BME280;27385;51.096;17.190;2023-11-19T00:18:35;100759.34;;;2.43;98.89
41706;BME280;27385;51.096;17.190;2023-11-19T00:21:05;100749.00;;;2.40;99.06
41706;BME280;27385;51.096;17.190;2023-11-19T00:23:36;100740.50;;;2.39;99.28
41706;BME280;27385;51.096;17.190;2023-11-19T00:26:06;100740.42;;;2.39;99.31
41706;BME280;27385;51.096;17.190;2023-11-19T00:28:39;100745.94;;;2.39;99.24
41706;BME280;27385;51.096;17.190;2023-11-19T00:31:09;100740.27;;;2.39;99.41
41706;BME280;27385;51.096;17.190;2023-11-19T00:33:40;100730.56;;;2.40;99.35
41706;BME280;27385;51.096;17.190;2023-11-19T00:36:11;100724.33;;;2.41;99.44
41706;BME280;27385;51.096;17.190;2023-11-19T00:38:41;100718.17;;;2.42;99.41
41706;BME280;27385;51.096;17.190;2023-11-19T00:41:11;100709.23;;;2.40;99.19
41706;BME280;27385;51.096;17.190;2023-11-19T00:43:43;100706.62;;;2.35;99.02
41706;BME280;27385;51.096;17.190;2023-11-19T00:46:12;100707.43;;;2.32;99.14
41706;BME280;27385;51.096;17.190;2023-11-19T00:48:43;100699.58;;;2.31;99.22
41706;BME280;27385;51.096;17.190;2023-11-19T00:51:13;100688.59;;;2.29;99.14
41706;BME280;27385;51.096;17.190;2023-11-19T00:53:43;100675.59;;;2.24;99.01
41706;BME280;27385;51.096;17.190;2023-11-19T00:56:13;100660.52;;;2.21;99.18
41706;BME280;27385;51.096;17.190;2023-11-19T00:58:44;100662.41;;;2.19;99.21
41706;BME280;27385;51.096;17.190;2023-11-19T01:01:20;100662.13;;;2.17;99.11
41706;BME280;27385;51.096;17.190;2023-11-19T01:03:51;100661.67;;;2.15;99.15
41706;BME280;27385;51.096;17.190;2023-11-19T01:06:27;100657.69;;;2.13;99.09
41706;BME280;27385;51.096;17.190;2023-11-19T01:08:58;100647.00;;;2.07;98.89
41706;BME280;27385;51.096;17.190;2023-11-19T01:11:32;100632.23;;;2.04;99.05
41706;BME280;27385;51.096;17.190;2023-11-19T01:14:02;100625.90;;;2.01;99.00
41706;BME280;27385;51.096;17.190;2023-11-19T01:16:32;100617.35;;;1.98;98.92
41706;BME280;27385;51.096;17.190;2023-11-19T01:19:03;100610.64;;;1.94;99.02
41706;BME280;27385;51.096;17.190;2023-11-19T01:21:33;100602.67;;;1.89;98.84
41706;BME280;27385;51.096;17.190;2023-11-19T01:24:03;100595.02;;;1.85;98.77
41706;BME280;27385;51.096;17.190;2023-11-19T01:26:37;100582.39;;;1.81;98.88
41706;BME280;27385;51.096;17.190;2023-11-19T01:29:08;100576.15;;;1.79;98.98
41706;BME280;27385;51.096;17.190;2023-11-19T01:31:37;100566.09;;;1.76;99.13
41706;BME280;27385;51.096;17.190;2023-11-19T01:34:08;100555.33;;;1.75;99.17
41706;BME280;27385;51.096;17.190;2023-11-19T01:36:38;100558.41;;;1.75;99.13
41706;BME280;27385;51.096;17.190;2023-11-19T01:39:08;100559.42;;;1.75;99.18
41706;BME280;27385;51.096;17.190;2023-11-19T01:41:38;100551.04;;;1.74;99.05
41706;BME280;27385;51.096;17.190;2023-11-19T01:44:08;100544.95;;;1.70;98.89
41706;BME280;27385;51.096;17.190;2023-11-19T01:46:41;100539.63;;;1.68;98.95
41706;BME280;27385;51.096;17.190;2023-11-19T01:49:12;100534.83;;;1.62;98.91
41706;BME280;27385;51.096;17.190;2023-11-19T01:51:43;100538.21;;;1.60;99.12
41706;BME280;27385;51.096;17.190;2023-11-19T01:54:13;100543.39;;;1.62;99.30
41706;BME280;27385;51.096;17.190;2023-11-19T01:56:43;100541.36;;;1.60;99.22
41706;BME280;27385;51.096;17.190;2023-11-19T01:59:13;100541.86;;;1.59;99.26
41706;BME280;27385;51.096;17.190;2023-11-19T02:01:43;100529.59;;;1.58;99.24
41706;BME280;27385;51.096;17.190;2023-11-19T02:04:13;100526.75;;;1.58;99.41
41706;BME280;27385;51.096;17.190;2023-11-19T02:06:43;100519.39;;;1.57;99.26
41706;BME280;27385;51.096;17.190;2023-11-19T02:09:14;100511.50;;;1.53;99.33
41706;BME280;27385;51.096;17.190;2023-11-19T02:11:47;100506.77;;;1.53;99.43
41706;BME280;27385;51.096;17.190;2023-11-19T02:14:19;100504.88;;;1.54;99.63
41706;BME280;27385;51.096;17.190;2023-11-19T02:16:51;100510.59;;;1.56;99.51
41706;BME280;27385;51.096;17.190;2023-11-19T02:19:21;100514.63;;;1.54;99.42
41706;BME280;27385;51.096;17.190;2023-11-19T02:21:51;100505.14;;;1.53;99.54
41706;BME280;27385;51.096;17.190;2023-11-19T02:24:20;100498.38;;;1.52;99.55
41706;BME280;27385;51.096;17.190;2023-11-19T02:26:52;100496.36;;;1.50;99.55
41706;BME280;27385;51.096;17.190;2023-11-19T02:29:26;100492.73;;;1.51;99.75
41706;BME280;27385;51.096;17.190;2023-11-19T02:31:56;100491.52;;;1.54;99.83
41706;BME280;27385;51.096;17.190;2023-11-19T02:34:25;100481.35;;;1.56;99.79
41706;BME280;27385;51.096;17.190;2023-11-19T02:36:55;100479.67;;;1.58;99.80
41706;BME280;27385;51.096;17.190;2023-11-19T02:39:25;100481.11;;;1.56;99.65
41706;BME280;27385;51.096;17.190;2023-11-19T02:41:56;100471.06;;;1.55;99.76
41706;BME280;27385;51.096;17.190;2023-11-19T02:44:25;100467.54;;;1.55;99.71
41706;BME280;27385;51.096;17.190;2023-11-19T02:46:57;100465.41;;;1.53;99.76
41706;BME280;27385;51.096;17.190;2023-11-19T02:49:28;100469.17;;;1.55;99.99
41706;BME280;27385;51.096;17.190;2023-11-19T02:51:58;100461.52;;;1.57;99.78
41706;BME280;27385;51.096;17.190;2023-11-19T02:54:28;100465.69;;;1.56;99.73
41706;BME280;27385;51.096;17.190;2023-11-19T02:56:58;100470.34;;;1.56;99.77
41706;BME280;27385;51.096;17.190;2023-11-19T02:59:29;100469.00;;;1.57;99.70
41706;BME280;27385;51.096;17.190;2023-11-19T03:02:06;100455.95;;;1.57;99.77
41706;BME280;27385;51.096;17.190;2023-11-19T03:04:39;100444.92;;;1.57;99.87
41706;BME280;27385;51.096;17.190;2023-11-19T03:07:10;100443.84;;;1.57;99.81
41706;BME280;27385;51.096;17.190;2023-11-19T03:09:41;100432.14;;;1.57;99.74
41706;BME280;27385;51.096;17.190;2023-11-19T03:12:12;100416.75;;;1.55;99.76
41706;BME280;27385;51.096;17.190;2023-11-19T03:14:42;100415.93;;;1.57;99.83
41706;BME280;27385;51.096;17.190;2023-11-19T03:17:13;100411.74;;;1.58;99.85
41706;BME280;27385;51.096;17.190;2023-11-19T03:19:42;100407.20;;;1.57;99.78
41706;BME280;27385;51.096;17.190;2023-11-19T03:22:12;100405.85;;;1.58;99.83
41706;BME280;27385;51.096;17.190;2023-11-19T03:24:42;100398.08;;;1.57;99.67
41706;BME280;27385;51.096;17.190;2023-11-19T03:27:12;100387.98;;;1.54;99.66
41706;BME280;27385;51.096;17.190;2023-11-19T03:29:42;100386.13;;;1.52;99.68
41706;BME280;27385;51.096;17.190;2023-11-19T03:32:12;100382.52;;;1.52;99.81
41706;BME280;27385;51.096;17.190;2023-11-19T03:34:44;100382.44;;;1.52;99.89
41706;BME280;27385;51.096;17.190;2023-11-19T03:37:14;100380.12;;;1.54;99.93
41706;BME280;27385;51.096;17.190;2023-11-19T03:39:45;100380.02;;;1.55;99.97
41706;BME280;27385;51.096;17.190;2023-11-19T03:42:14;100376.77;;;1.57;99.90
41706;BME280;27385;51.096;17.190;2023-11-19T03:44:45;100374.65;;;1.58;99.80
41706;BME280;27385;51.096;17.190;2023-11-19T03:47:14;100364.66;;;1.57;99.70
41706;BME280;27385;51.096;17.190;2023-11-19T03:49:44;100352.50;;;1.56;99.68
41706;BME280;27385;51.096;17.190;2023-11-19T03:52:17;100342.67;;;1.56;99.68
41706;BME280;27385;51.096;17.190;2023-11-19T03:54:47;100340.70;;;1.56;99.64
41706;BME280;27385;51.096;17.190;2023-11-19T03:57:16;100341.08;;;1.57;99.66
41706;BME280;27385;51.096;17.190;2023-11-19T03:59:48;100333.77;;;1.57;99.66
41706;BME280;27385;51.096;17.190;2023-11-19T04:02:17;100318.96;;;1.59;99.75
41706;BME280;27385;51.096;17.190;2023-11-19T04:04:48;100314.66;;;1.62;99.75
41706;BME280;27385;51.096;17.190;2023-11-19T04:07:17;100309.09;;;1.62;99.55
41706;BME280;27385;51.096;17.190;2023-11-19T04:09:48;100311.93;;;1.61;99.53
41706;BME280;27385;51.096;17.190;2023-11-19T04:12:18;100314.14;;;1.61;99.51
41706;BME280;27385;51.096;17.190;2023-11-19T04:14:48;100310.65;;;1.62;99.70
41706;BME280;27385;51.096;17.190;2023-11-19T04:17:18;100302.30;;;1.64;99.60
41706;BME280;27385;51.096;17.190;2023-11-19T04:19:47;100293.02;;;1.64;99.53
41706;BME280;27385;51.096;17.190;2023-11-19T04:22:17;100278.61;;;1.65;99.50
41706;BME280;27385;51.096;17.190;2023-11-19T04:24:47;100261.77;;;1.67;99.60
41706;BME280;27385;51.096;17.190;2023-11-19T04:27:17;100248.05;;;1.69;99.53
41706;BME280;27385;51.096;17.190;2023-11-19T04:29:47;100243.61;;;1.66;99.36
41706;BME280;27385;51.096;17.190;2023-11-19T04:32:19;100240.71;;;1.66;99.45
41706;BME280;27385;51.096;17.190;2023-11-19T04:34:49;100231.89;;;1.66;99.42
41706;BME280;27385;51.096;17.190;2023-11-19T04:37:19;100227.10;;;1.67;99.48
41706;BME280;27385;51.096;17.190;2023-11-19T04:39:49;100216.71;;;1.66;99.45
41706;BME280;27385;51.096;17.190;2023-11-19T04:42:19;100201.70;;;1.67;99.53
41706;BME280;27385;51.096;17.190;2023-11-19T04:44:52;100192.16;;;1.68;99.64
41706;BME280;27385;51.096;17.190;2023-11-19T04:47:22;100196.15;;;1.70;99.69
41706;BME280;27385;51.096;17.190;2023-11-19T04:49:52;100201.56;;;1.70;99.50
41706;BME280;27385;51.096;17.190;2023-11-19T04:52:22;100205.50;;;1.70;99.59
41706;BME280;27385;51.096;17.190;2023-11-19T04:54:52;100205.40;;;1.72;99.53
41706;BME280;27385;51.096;17.190;2023-11-19T04:57:21;100200.13;;;1.71;99.50
41706;BME280;27385;51.096;17.190;2023-11-19T04:59:51;100193.91;;;1.73;99.61
41706;BME280;27385;51.096;17.190;2023-11-19T05:02:20;100197.08;;;1.70;99.50
41706;BME280;27385;51.096;17.190;2023-11-19T05:04:50;100193.55;;;1.70;99.49
41706;BME280;27385;51.096;17.190;2023-11-19T05:07:20;100188.57;;;1.71;99.72
41706;BME280;27385;51.096;17.190;2023-11-19T05:09:50;100183.49;;;1.74;99.63
41706;BME280;27385;51.096;17.190;2023-11-19T05:12:19;100183.91;;;1.76;99.73
41706;BME280;27385;51.096;17.190;2023-11-19T05:14:49;100180.42;;;1.78;99.78
41706;BME280;27385;51.096;17.190;2023-11-19T05:17:19;100182.34;;;1.81;99.82
41706;BME280;27385;51.096;17.190;2023-11-19T05:19:50;100178.36;;;1.84;99.91
41706;BME280;27385;51.096;17.190;2023-11-19T05:22:20;100166.17;;;1.84;99.70
41706;BME280;27385;51.096;17.190;2023-11-19T05:24:50;100158.48;;;1.86;99.84
41706;BME280;27385;51.096;17.190;2023-11-19T05:27:19;100143.52;;;1.87;99.71
41706;BME280;27385;51.096;17.190;2023-11-19T05:29:49;100134.33;;;1.87;99.65
41706;BME280;27385;51.096;17.190;2023-11-19T05:32:19;100129.09;;;1.85;99.65
41706;BME280;27385;51.096;17.190;2023-11-19T05:34:49;100126.98;;;1.85;99.80
41706;BME280;27385;51.096;17.190;2023-11-19T05:37:19;100118.08;;;1.86;99.88
41706;BME280;27385;51.096;17.190;2023-11-19T05:39:49;100113.39;;;1.88;99.87
41706;BME280;27385;51.096;17.190;2023-11-19T05:42:19;100107.55;;;1.89;99.80
41706;BME280;27385;51.096;17.190;2023-11-19T05:44:49;100112.52;;;1.88;99.87
41706;BME280;27385;51.096;17.190;2023-11-19T05:47:19;100114.88;;;1.89;99.90
41706;BME280;27385;51.096;17.190;2023-11-19T05:49:48;100116.82;;;1.90;99.94
41706;BME280;27385;51.096;17.190;2023-11-19T05:52:18;100117.09;;;1.91;99.98
41706;BME280;27385;51.096;17.190;2023-11-19T05:54:50;100116.16;;;1.91;99.94
41706;BME280;27385;51.096;17.190;2023-11-19T05:57:20;100106.98;;;1.93;99.99
41706;BME280;27385;51.096;17.190;2023-11-19T05:59:53;100101.70;;;1.98;100.00
41706;BME280;27385;51.096;17.190;2023-11-19T06:02:23;100093.23;;;2.00;100.00
41706;BME280;27385;51.096;17.190;2023-11-19T06:04:52;100086.98;;;2.01;99.99
41706;BME280;27385;51.096;17.190;2023-11-19T06:07:22;100091.71;;;2.02;99.89
41706;BME280;27385;51.096;17.190;2023-11-19T06:09:52;100093.27;;;2.03;99.91
41706;BME280;27385;51.096;17.190;2023-11-19T06:12:23;100087.73;;;2.05;99.94
41706;BME280;27385;51.096;17.190;2023-11-19T06:14:59;100076.52;;;2.09;99.98
41706;BME280;27385;51.096;17.190;2023-11-19T06:17:30;100078.80;;;2.14;99.95
41706;BME280;27385;51.096;17.190;2023-11-19T06:20:01;100077.11;;;2.15;99.86
41706;BME280;27385;51.096;17.190;2023-11-19T06:22:34;100081.09;;;2.17;99.86
41706;BME280;27385;51.096;17.190;2023-11-19T06:25:05;100080.49;;;2.19;99.82
41706;BME280;27385;51.096;17.190;2023-11-19T06:27:36;100083.31;;;2.19;99.61
41706;BME280;27385;51.096;17.190;2023-11-19T06:30:06;100078.34;;;2.20;99.72
41706;BME280;27385;51.096;17.190;2023-11-19T06:32:36;100063.14;;;2.21;99.71
41706;BME280;27385;51.096;17.190;2023-11-19T06:35:07;100064.23;;;2.21;99.68
41706;BME280;27385;51.096;17.190;2023-11-19T06:37:39;100059.33;;;2.22;99.73
41706;BME280;27385;51.096;17.190;2023-11-19T06:40:10;100052.73;;;2.25;99.96
41706;BME280;27385;51.096;17.190;2023-11-19T06:42:41;100054.80;;;2.28;99.88
41706;BME280;27385;51.096;17.190;2023-11-19T06:45:11;100044.78;;;2.29;99.88
41706;BME280;27385;51.096;17.190;2023-11-19T06:47:42;100035.55;;;2.30;99.91
41706;BME280;27385;51.096;17.190;2023-11-19T06:50:12;100031.11;;;2.32;99.95
41706;BME280;27385;51.096;17.190;2023-11-19T06:52:43;100032.34;;;2.32;99.96
41706;BME280;27385;51.096;17.190;2023-11-19T06:55:16;100027.75;;;2.34;100.00
41706;BME280;27385;51.096;17.190;2023-11-19T06:57:47;100021.39;;;2.36;100.00
41706;BME280;27385;51.096;17.190;2023-11-19T07:00:33;100006.86;;;2.38;99.97
41706;BME280;27385;51.096;17.190;2023-11-19T07:03:13;100005.27;;;2.40;99.99
41706;BME280;27385;51.096;17.190;2023-11-19T07:05:42;99997.27;;;2.41;100.00
41706;BME280;27385;51.096;17.190;2023-11-19T07:08:13;99987.02;;;2.42;99.90
41706;BME280;27385;51.096;17.190;2023-11-19T07:10:43;99978.49;;;2.43;99.93
41706;BME280;27385;51.096;17.190;2023-11-19T07:13:15;99981.88;;;2.43;99.87
41706;BME280;27385;51.096;17.190;2023-11-19T07:15:48;99982.37;;;2.45;99.99
41706;BME280;27385;51.096;17.190;2023-11-19T07:18:20;99980.70;;;2.50;100.00
41706;BME280;27385;51.096;17.190;2023-11-19T07:20:53;99977.73;;;2.52;100.00
41706;BME280;27385;51.096;17.190;2023-11-19T07:23:24;99973.52;;;2.54;99.93
41706;BME280;27385;51.096;17.190;2023-11-19T07:25:56;99966.48;;;2.54;99.80
41706;BME280;27385;51.096;17.190;2023-11-19T07:28:27;99966.71;;;2.55;99.85
41706;BME280;27385;51.096;17.190;2023-11-19T07:31:17;99955.51;;;2.59;99.99
41706;BME280;27385;51.096;17.190;2023-11-19T07:33:48;99959.70;;;2.62;99.83
41706;BME280;27385;51.096;17.190;2023-11-19T07:36:19;99963.19;;;2.64;99.84
41706;BME280;27385;51.096;17.190;2023-11-19T07:38:50;99952.34;;;2.66;99.95
41706;BME280;27385;51.096;17.190;2023-11-19T07:41:23;99947.63;;;2.68;99.85
41706;BME280;27385;51.096;17.190;2023-11-19T07:43:54;99951.80;;;2.72;99.89
41706;BME280;27385;51.096;17.190;2023-11-19T07:46:26;99956.00;;;2.74;99.85
41706;BME280;27385;51.096;17.190;2023-11-19T07:48:56;99955.30;;;2.77;99.69
41706;BME280;27385;51.096;17.190;2023-11-19T07:51:27;99942.02;;;2.78;99.51
41706;BME280;27385;51.096;17.190;2023-11-19T07:53:57;99935.95;;;2.79;99.44
41706;BME280;27385;51.096;17.190;2023-11-19T07:56:28;99930.31;;;2.80;99.46
41706;BME280;27385;51.096;17.190;2023-11-19T07:58:58;99921.16;;;2.81;99.58
41706;BME280;27385;51.096;17.190;2023-11-19T08:01:29;99922.48;;;2.82;99.44
41706;BME280;27385;51.096;17.190;2023-11-19T08:04:01;99930.45;;;2.84;99.41
41706;BME280;27385;51.096;17.190;2023-11-19T08:06:32;99930.65;;;2.85;99.50
41706;BME280;27385;51.096;17.190;2023-11-19T08:09:04;99928.38;;;2.88;99.70
41706;BME280;27385;51.096;17.190;2023-11-19T08:11:35;99921.66;;;2.89;99.67
41706;BME280;27385;51.096;17.190;2023-11-19T08:14:06;99914.30;;;2.90;99.63
41706;BME280;27385;51.096;17.190;2023-11-19T08:16:37;99910.27;;;2.90;99.82
41706;BME280;27385;51.096;17.190;2023-11-19T08:19:28;99903.75;;;2.92;99.89
41706;BME280;27385;51.096;17.190;2023-11-19T08:21:59;99896.84;;;2.91;99.73
41706;BME280;27385;51.096;17.190;2023-11-19T08:24:29;99896.69;;;2.91;99.77
41706;BME280;27385;51.096;17.190;2023-11-19T08:27:09;99885.88;;;2.92;99.89
41706;BME280;27385;51.096;17.190;2023-11-19T08:30:03;99886.91;;;2.91;99.90
41706;BME280;27385;51.096;17.190;2023-11-19T08:33:12;99883.19;;;2.90;99.88
41706;BME280;27385;51.096;17.190;2023-11-19T08:36:01;99870.28;;;2.87;99.92
41706;BME280;27385;51.096;17.190;2023-11-19T08:38:50;99866.92;;;2.85;99.99
41706;BME280;27385;51.096;17.190;2023-11-19T08:41:20;99860.05;;;2.83;99.99
41706;BME280;27385;51.096;17.190;2023-11-19T08:43:58;99862.16;;;2.81;99.98
41706;BME280;27385;51.096;17.190;2023-11-19T08:46:30;99853.85;;;2.79;100.00
41706;BME280;27385;51.096;17.190;2023-11-19T08:49:00;99847.02;;;2.76;100.00
41706;BME280;27385;51.096;17.190;2023-11-19T08:51:31;99839.73;;;2.72;100.00
41706;BME280;27385;51.096;17.190;2023-11-19T08:54:01;99834.88;;;2.68;99.93
41706;BME280;27385;51.096;17.190;2023-11-19T08:56:32;99830.09;;;2.62;99.88
41706;BME280;27385;51.096;17.190;2023-11-19T08:59:04;99821.22;;;2.55;99.93
41706;BME280;27385;51.096;17.190;2023-11-19T09:01:34;99810.69;;;2.49;99.95
41706;BME280;27385;51.096;17.190;2023-11-19T09:04:04;99802.29;;;2.42;99.79
41706;BME280;27385;51.096;17.190;2023-11-19T09:07:01;99801.41;;;2.36;99.94
41706;BME280;27385;51.096;17.190;2023-11-19T09:09:59;99800.84;;;2.34;100.00
41706;BME280;27385;51.096;17.190;2023-11-19T09:12:34;99801.04;;;2.33;100.00
41706;BME280;27385;51.096;17.190;2023-11-19T09:15:24;99786.80;;;2.32;100.00
41706;BME280;27385;51.096;17.190;2023-11-19T09:18:19;99784.95;;;2.36;100.00
41706;BME280;27385;51.096;17.190;2023-11-19T09:20:59;99778.41;;;2.40;100.00
41706;BME280;27385;51.096;17.190;2023-11-19T09:23:33;99780.58;;;2.41;100.00
41706;BME280;27385;51.096;17.190;2023-11-19T09:26:07;99783.71;;;2.42;100.00
41706;BME280;27385;51.096;17.190;2023-11-19T09:28:41;99783.82;;;2.43;100.00
41706;BME280;27385;51.096;17.190;2023-11-19T09:31:15;99772.98;;;2.45;100.00
41706;BME280;27385;51.096;17.190;2023-11-19T09:33:46;99766.22;;;2.48;100.00
41706;BME280;27385;51.096;17.190;2023-11-19T09:36:19;99760.30;;;2.52;100.00
41706;BME280;27385;51.096;17.190;2023-11-19T09:39:30;99754.33;;;2.57;100.00
41706;BME280;27385;51.096;17.190;2023-11-19T09:42:20;99754.34;;;2.62;100.00
41706;BME280;27385;51.096;17.190;2023-11-19T09:44:53;99750.75;;;2.66;100.00
41706;BME280;27385;51.096;17.190;2023-11-19T09:47:55;99743.05;;;2.71;100.00
41706;BME280;27385;51.096;17.190;2023-11-19T09:50:48;99746.70;;;2.76;100.00
41706;BME280;27385;51.096;17.190;2023-11-19T09:53:50;99748.59;;;2.81;100.00
41706;BME280;27385;51.096;17.190;2023-11-19T09:56:51;99741.83;;;2.86;100.00
41706;BME280;27385;51.096;17.190;2023-11-19T10:00:05;99728.48;;;2.90;100.00
41706;BME280;27385;51.096;17.190;2023-11-19T10:03:00;99728.30;;;2.93;100.00
41706;BME280;27385;51.096;17.190;2023-11-19T10:05:39;99715.95;;;2.98;100.00
41706;BME280;27385;51.096;17.190;2023-11-19T10:08:10;99707.40;;;3.01;100.00
41706;BME280;27385;51.096;17.190;2023-11-19T10:10:42;99698.73;;;3.04;100.00
41706;BME280;27385;51.096;17.190;2023-11-19T10:13:12;99683.40;;;3.08;100.00
41706;BME280;27385;51.096;17.190;2023-11-19T10:15:44;99680.52;;;3.09;100.00
41706;BME280;27385;51.096;17.190;2023-11-19T10:18:15;99673.10;;;3.12;100.00
41706;BME280;27385;51.096;17.190;2023-11-19T10:20:47;99662.87;;;3.14;100.00
41706;BME280;27385;51.096;17.190;2023-11-19T10:23:17;99660.92;;;3.16;100.00
41706;BME280;27385;51.096;17.190;2023-11-19T10:25:47;99659.55;;;3.17;100.00
41706;BME280;27385;51.096;17.190;2023-11-19T10:28:52;99650.52;;;3.21;100.00
41706;BME280;27385;51.096;17.190;2023-11-19T10:31:22;99644.02;;;3.24;100.00
41706;BME280;27385;51.096;17.190;2023-11-19T10:33:53;99647.54;;;3.28;100.00
41706;BME280;27385;51.096;17.190;2023-11-19T10:36:25;99636.91;;;3.32;100.00
41706;BME280;27385;51.096;17.190;2023-11-19T10:39:06;99615.39;;;3.42;100.00
41706;BME280;27385;51.096;17.190;2023-11-19T10:41:37;99608.33;;;3.48;100.00
41706;BME280;27385;51.096;17.190;2023-11-19T10:44:12;99608.20;;;3.53;100.00
41706;BME280;27385;51.096;17.190;2023-11-19T10:46:42;99610.74;;;3.60;100.00
41706;BME280;27385;51.096;17.190;2023-11-19T10:49:13;99598.86;;;3.66;100.00
41706;BME280;27385;51.096;17.190;2023-11-19T10:51:43;99604.30;;;3.70;100.00
41706;BME280;27385;51.096;17.190;2023-11-19T10:54:15;99601.98;;;3.76;100.00
41706;BME280;27385;51.096;17.190;2023-11-19T10:57:08;99593.30;;;3.80;100.00
41706;BME280;27385;51.096;17.190;2023-11-19T10:59:39;99595.26;;;3.83;100.00
41706;BME280;27385;51.096;17.190;2023-11-19T11:02:09;99595.08;;;3.86;100.00
41706;BME280;27385;51.096;17.190;2023-11-19T11:04:44;99573.45;;;3.88;100.00
41706;BME280;27385;51.096;17.190;2023-11-19T11:07:16;99578.23;;;3.89;100.00
41706;BME280;27385;51.096;17.190;2023-11-19T11:09:52;99581.27;;;3.90;100.00
41706;BME280;27385;51.096;17.190;2023-11-19T11:12:22;99585.65;;;3.91;100.00
41706;BME280;27385;51.096;17.190;2023-11-19T11:14:53;99582.65;;;3.91;100.00
41706;BME280;27385;51.096;17.190;2023-11-19T11:17:25;99568.30;;;3.93;100.00
41706;BME280;27385;51.096;17.190;2023-11-19T11:19:57;99563.05;;;3.94;100.00
41706;BME280;27385;51.096;17.190;2023-11-19T11:22:28;99558.12;;;3.95;100.00
41706;BME280;27385;51.096;17.190;2023-11-19T11:25:16;99554.77;;;3.96;100.00
41706;BME280;27385;51.096;17.190;2023-11-19T11:30:42;99552.39;;;4.00;100.00
41706;BME280;27385;51.096;17.190;2023-11-19T11:33:22;99556.80;;;4.03;100.00
41706;BME280;27385;51.096;17.190;2023-11-19T11:35:58;99562.06;;;4.06;100.00
41706;BME280;27385;51.096;17.190;2023-11-19T11:38:35;99549.95;;;4.09;100.00
41706;BME280;27385;51.096;17.190;2023-11-19T11:41:16;99544.52;;;4.11;100.00
41706;BME280;27385;51.096;17.190;2023-11-19T11:43:48;99544.20;;;4.13;100.00
41706;BME280;27385;51.096;17.190;2023-11-19T11:49:06;99542.73;;;4.18;100.00
41706;BME280;27385;51.096;17.190;2023-11-19T11:55:09;99533.61;;;4.23;100.00
41706;BME280;27385;51.096;17.190;2023-11-19T11:57:39;99529.48;;;4.26;100.00
41706;BME280;27385;51.096;17.190;2023-11-19T12:00:11;99532.27;;;4.28;100.00
41706;BME280;27385;51.096;17.190;2023-11-19T12:02:42;99540.02;;;4.32;100.00
41706;BME280;27385;51.096;17.190;2023-11-19T12:05:14;99540.39;;;4.36;100.00
41706;BME280;27385;51.096;17.190;2023-11-19T12:07:47;99532.64;;;4.40;100.00
41706;BME280;27385;51.096;17.190;2023-11-19T12:10:23;99528.71;;;4.44;100.00
41706;BME280;27385;51.096;17.190;2023-11-19T12:12:56;99513.67;;;4.49;100.00
41706;BME280;27385;51.096;17.190;2023-11-19T12:15:28;99516.26;;;4.51;100.00
41706;BME280;27385;51.096;17.190;2023-11-19T12:17:58;99507.48;;;4.55;100.00
41706;BME280;27385;51.096;17.190;2023-11-19T12:20:28;99502.38;;;4.59;100.00
41706;BME280;27385;51.096;17.190;2023-11-19T12:23:05;99499.99;;;4.63;100.00
41706;BME280;27385;51.096;17.190;2023-11-19T12:25:38;99496.96;;;4.67;100.00
41706;BME280;27385;51.096;17.190;2023-11-19T12:28:11;99491.91;;;4.73;100.00
41706;BME280;27385;51.096;17.190;2023-11-19T12:30:41;99492.73;;;4.78;100.00
41706;BME280;27385;51.096;17.190;2023-11-19T12:33:11;99490.91;;;4.82;100.00
41706;BME280;27385;51.096;17.190;2023-11-19T12:35:42;99482.59;;;4.86;100.00
41706;BME280;27385;51.096;17.190;2023-11-19T12:38:19;99480.27;;;4.91;100.00
41706;BME280;27385;51.096;17.190;2023-11-19T12:40:49;99479.72;;;4.96;100.00
41706;BME280;27385;51.096;17.190;2023-11-19T12:43:31;99479.14;;;5.01;100.00
41706;BME280;27385;51.096;17.190;2023-11-19T12:46:02;99475.98;;;5.06;100.00
41706;BME280;27385;51.096;17.190;2023-11-19T12:48:32;99471.95;;;5.11;100.00
41706;BME280;27385;51.096;17.190;2023-11-19T12:51:02;99470.73;;;5.16;100.00
41706;BME280;27385;51.096;17.190;2023-11-19T12:53:46;99471.01;;;5.21;100.00
41706;BME280;27385;51.096;17.190;2023-11-19T12:56:16;99463.94;;;5.25;100.00
41706;BME280;27385;51.096;17.190;2023-11-19T12:58:46;99458.86;;;5.29;100.00
41706;BME280;27385;51.096;17.190;2023-11-19T13:01:17;99454.89;;;5.35;100.00
41706;BME280;27385;51.096;17.190;2023-11-19T13:03:47;99456.73;;;5.39;100.00
41706;BME280;27385;51.096;17.190;2023-11-19T13:06:22;99449.27;;;5.47;100.00
41706;BME280;27385;51.096;17.190;2023-11-19T13:08:52;99446.56;;;5.54;100.00
41706;BME280;27385;51.096;17.190;2023-11-19T13:11:32;99441.53;;;5.62;100.00
41706;BME280;27385;51.096;17.190;2023-11-19T13:14:03;99446.50;;;5.69;100.00
41706;BME280;27385;51.096;17.190;2023-11-19T13:16:33;99439.02;;;5.76;100.00
41706;BME280;27385;51.096;17.190;2023-11-19T13:19:02;99430.96;;;5.83;100.00
41706;BME280;27385;51.096;17.190;2023-11-19T13:21:33;99432.20;;;5.87;100.00
41706;BME280;27385;51.096;17.190;2023-11-19T13:24:02;99431.09;;;5.91;100.00
41706;BME280;27385;51.096;17.190;2023-11-19T13:26:32;99434.56;;;5.94;100.00
41706;BME280;27385;51.096;17.190;2023-11-19T13:29:02;99425.55;;;5.97;100.00